Terminal Aerodrome Forecast
Issued by NWS Miami, FL

Home | Current Version | Previous Version | Text Only | Print | Product List | Glossary On
Versions: 1 2 3 4 5 6 7 8 9 10 11 12 13 14 15 16 17 18 19 20 21 22 23 24 25
000
FTUS42 KMFL 220520
TAFAPF
TAF
KAPF 220520Z 2206/2306 12005KT P6SM FEW030 SCT060
     FM221000 10006KT P6SM VCSH SCT030 OVC060
     FM221200 13008KT 6SM -SHRA VCTS SCT020CB BKN030 OVC060
      TEMPO 2213/2216 2SM TSRA BKN015CB OVC025
     FM221900 24007KT P6SM -SHRA SCT010 BKN030 OVC050
     FM222300 VRB04KT P6SM SCT030 BKN050 BKN100=

USA.gov is the U.S. government's official web portal to all federal, state and local government web resources and services.